sensor_id;sensor_type;location;lat;lon;timestamp;temperature;humidity
80824;SHT35;70228;59.128;37.936;2023-05-19T05:19:28;17.60;38.48
80824;SHT35;70228;59.128;37.936;2023-05-19T05:23:02;17.57;39.32
80824;SHT35;70228;59.128;37.936;2023-05-19T05:25:29;17.66;39.18
80824;SHT35;70228;59.128;37.936;2023-05-19T05:27:55;17.64;39.23
80824;SHT35;70228;59.128;37.936;2023-05-19T05:30:23;17.69;39.32
80824;SHT35;70228;59.128;37.936;2023-05-19T05:32:50;17.54;39.57
80824;SHT35;70228;59.128;37.936;2023-05-19T05:35:16;17.53;40.13
80824;SHT35;70228;59.128;37.936;2023-05-19T05:37:42;17.60;40.37
80824;SHT35;70228;59.128;37.936;2023-05-19T05:40:08;17.62;40.25
80824;SHT35;70228;59.128;37.936;2023-05-19T05:42:35;17.71;40.13
80824;SHT35;70228;59.128;37.936;2023-05-19T05:45:01;17.88;39.54
80824;SHT35;70228;59.128;37.936;2023-05-19T05:47:27;18.06;38.99
80824;SHT35;70228;59.128;37.936;2023-05-19T05:49:54;18.12;38.45
80824;SHT35;70228;59.128;37.936;2023-05-19T05:52:21;18.12;38.50
80824;SHT35;70228;59.128;37.936;2023-05-19T05:54:48;18.18;38.44
80824;SHT35;70228;59.128;37.936;2023-05-19T05:57:14;18.12;38.50
80824;SHT35;70228;59.128;37.936;2023-05-19T05:59:40;18.09;38.31
80824;SHT35;70228;59.128;37.936;2023-05-19T06:02:08;17.81;38.13
80824;SHT35;70228;59.128;37.936;2023-05-19T06:04:34;17.62;38.71
80824;SHT35;70228;59.128;37.936;2023-05-19T06:07:00;17.59;38.80
80824;SHT35;70228;59.128;37.936;2023-05-19T06:09:26;17.54;39.19
80824;SHT35;70228;59.128;37.936;2023-05-19T06:11:56;17.47;38.77
80824;SHT35;70228;59.128;37.936;2023-05-19T06:14:23;17.39;39.06
80824;SHT35;70228;59.128;37.936;2023-05-19T06:16:49;17.37;39.10
80824;SHT35;70228;59.128;37.936;2023-05-19T06:19:15;17.40;38.32
80824;SHT35;70228;59.128;37.936;2023-05-19T06:21:41;17.30;38.64
80824;SHT35;70228;59.128;37.936;2023-05-19T06:24:08;17.28;38.29
80824;SHT35;70228;59.128;37.936;2023-05-19T06:26:34;17.11;38.37
80824;SHT35;70228;59.128;37.936;2023-05-19T06:29:00;17.11;38.35
80824;SHT35;70228;59.128;37.936;2023-05-19T06:31:27;17.05;38.45
80824;SHT35;70228;59.128;37.936;2023-05-19T06:33:53;17.08;37.66
80824;SHT35;70228;59.128;37.936;2023-05-19T06:36:20;17.11;37.15
80824;SHT35;70228;59.128;37.936;2023-05-19T06:38:46;17.00;37.05
80824;SHT35;70228;59.128;37.936;2023-05-19T06:41:12;16.81;37.30
80824;SHT35;70228;59.128;37.936;2023-05-19T06:43:38;16.70;37.45
80824;SHT35;70228;59.128;37.936;2023-05-19T06:46:04;16.84;37.35
80824;SHT35;70228;59.128;37.936;2023-05-19T06:48:31;16.78;36.65
80824;SHT35;70228;59.128;37.936;2023-05-19T06:50:57;16.65;36.20
80824;SHT35;70228;59.128;37.936;2023-05-19T06:53:23;16.60;36.16
80824;SHT35;70228;59.128;37.936;2023-05-19T06:55:49;16.50;35.70
80824;SHT35;70228;59.128;37.936;2023-05-19T06:58:15;16.29;35.79
80824;SHT35;70228;59.128;37.936;2023-05-19T07:00:42;16.29;35.95
80824;SHT35;70228;59.128;37.936;2023-05-19T07:03:08;16.27;35.89
80824;SHT35;70228;59.128;37.936;2023-05-19T07:05:34;16.33;36.07
80824;SHT35;70228;59.128;37.936;2023-05-19T07:08:01;16.37;35.84
80824;SHT35;70228;59.128;37.936;2023-05-19T07:10:27;16.39;35.50
80824;SHT35;70228;59.128;37.936;2023-05-19T07:12:53;16.30;35.95
80824;SHT35;70228;59.128;37.936;2023-05-19T07:15:20;16.33;35.97
80824;SHT35;70228;59.128;37.936;2023-05-19T07:17:46;16.29;36.18
80824;SHT35;70228;59.128;37.936;2023-05-19T07:20:12;16.34;36.16
80824;SHT35;70228;59.128;37.936;2023-05-19T07:22:38;16.42;36.39
80824;SHT35;70228;59.128;37.936;2023-05-19T07:25:08;16.56;36.06
80824;SHT35;70228;59.128;37.936;2023-05-19T07:27:34;16.56;35.95
80824;SHT35;70228;59.128;37.936;2023-05-19T07:30:00;16.46;35.95
80824;SHT35;70228;59.128;37.936;2023-05-19T07:32:26;16.29;36.31
80824;SHT35;70228;59.128;37.936;2023-05-19T07:34:52;16.32;36.46
80824;SHT35;70228;59.128;37.936;2023-05-19T07:37:18;16.33;36.06
80824;SHT35;70228;59.128;37.936;2023-05-19T07:39:44;16.25;36.22
80824;SHT35;70228;59.128;37.936;2023-05-19T07:42:10;16.18;36.31
80824;SHT35;70228;59.128;37.936;2023-05-19T07:44:36;16.13;36.62
80824;SHT35;70228;59.128;37.936;2023-05-19T07:47:03;16.18;36.69
80824;SHT35;70228;59.128;37.936;2023-05-19T07:49:29;16.23;37.05
80824;SHT35;70228;59.128;37.936;2023-05-19T07:51:56;16.40;36.80
80824;SHT35;70228;59.128;37.936;2023-05-19T07:54:22;16.57;36.61
80824;SHT35;70228;59.128;37.936;2023-05-19T07:56:48;16.68;36.20
80824;SHT35;70228;59.128;37.936;2023-05-19T07:59:14;16.70;36.30
80824;SHT35;70228;59.128;37.936;2023-05-19T08:01:40;16.73;36.35
80824;SHT35;70228;59.128;37.936;2023-05-19T08:04:07;16.60;36.32
80824;SHT35;70228;59.128;37.936;2023-05-19T08:06:33;16.63;36.59
80824;SHT35;70228;59.128;37.936;2023-05-19T08:08:59;16.70;36.64
80824;SHT35;70228;59.128;37.936;2023-05-19T08:11:25;16.84;36.58
80824;SHT35;70228;59.128;37.936;2023-05-19T08:13:52;16.85;36.19
80824;SHT35;70228;59.128;37.936;2023-05-19T08:16:18;16.75;36.15
80824;SHT35;70228;59.128;37.936;2023-05-19T08:18:44;16.64;36.22
80824;SHT35;70228;59.128;37.936;2023-05-19T08:21:10;16.68;36.54
80824;SHT35;70228;59.128;37.936;2023-05-19T08:23:36;16.96;36.32
80824;SHT35;70228;59.128;37.936;2023-05-19T08:26:03;17.18;36.17
80824;SHT35;70228;59.128;37.936;2023-05-19T08:28:30;17.22;35.71
80824;SHT35;70228;59.128;37.936;2023-05-19T08:30:56;17.12;35.91
80824;SHT35;70228;59.128;37.936;2023-05-19T08:33:23;17.09;35.65
80824;SHT35;70228;59.128;37.936;2023-05-19T08:35:49;17.18;35.36
80824;SHT35;70228;59.128;37.936;2023-05-19T08:38:15;17.20;35.02
80824;SHT35;70228;59.128;37.936;2023-05-19T08:40:41;17.16;35.13
80824;SHT35;70228;59.128;37.936;2023-05-19T08:43:07;17.23;35.05
80824;SHT35;70228;59.128;37.936;2023-05-19T08:45:34;17.26;34.95
80824;SHT35;70228;59.128;37.936;2023-05-19T08:48:03;17.28;35.23
80824;SHT35;70228;59.128;37.936;2023-05-19T08:50:30;17.33;35.05
80824;SHT35;70228;59.128;37.936;2023-05-19T08:53:12;17.30;34.72
80824;SHT35;70228;59.128;37.936;2023-05-19T08:56:06;17.26;35.08
80824;SHT35;70228;59.128;37.936;2023-05-19T08:58:39;17.29;35.32
80824;SHT35;70228;59.128;37.936;2023-05-19T09:01:13;17.50;35.31
80824;SHT35;70228;59.128;37.936;2023-05-19T09:03:43;17.60;35.27
80824;SHT35;70228;59.128;37.936;2023-05-19T09:06:10;17.64;35.26
80824;SHT35;70228;59.128;37.936;2023-05-19T09:08:40;17.69;35.23
80824;SHT35;70228;59.128;37.936;2023-05-19T09:11:08;17.75;35.36
80824;SHT35;70228;59.128;37.936;2023-05-19T09:13:35;17.81;35.10
80824;SHT35;70228;59.128;37.936;2023-05-19T09:16:01;17.84;35.07
80824;SHT35;70228;59.128;37.936;2023-05-19T09:18:28;17.88;35.02
80824;SHT35;70228;59.128;37.936;2023-05-19T09:20:59;18.06;34.82
80824;SHT35;70228;59.128;37.936;2023-05-19T09:23:31;18.13;34.66
80824;SHT35;70228;59.128;37.936;2023-05-19T09:26:02;18.18;34.49
80824;SHT35;70228;59.128;37.936;2023-05-19T09:28:34;18.12;34.74
80824;SHT35;70228;59.128;37.936;2023-05-19T09:31:05;18.18;34.87
80824;SHT35;70228;59.128;37.936;2023-05-19T09:33:34;18.21;34.86
80824;SHT35;70228;59.128;37.936;2023-05-19T09:36:02;18.24;34.74
80824;SHT35;70228;59.128;37.936;2023-05-19T09:38:30;18.26;34.68
80824;SHT35;70228;59.128;37.936;2023-05-19T09:40:58;18.32;34.64
80824;SHT35;70228;59.128;37.936;2023-05-19T09:43:29;18.33;34.38
80824;SHT35;70228;59.128;37.936;2023-05-19T09:48:28;17.84;34.63
80824;SHT35;70228;59.128;37.936;2023-05-19T09:50:55;17.51;34.95
80824;SHT35;70228;59.128;37.936;2023-05-19T09:53:23;17.28;35.53
80824;SHT35;70228;59.128;37.936;2023-05-19T09:55:50;17.19;35.69
80824;SHT35;70228;59.128;37.936;2023-05-19T09:58:21;17.11;35.80
80824;SHT35;70228;59.128;37.936;2023-05-19T10:00:47;17.02;36.12
80824;SHT35;70228;59.128;37.936;2023-05-19T10:03:15;17.01;36.11
80824;SHT35;70228;59.128;37.936;2023-05-19T10:05:43;16.87;36.29
80824;SHT35;70228;59.128;37.936;2023-05-19T10:08:10;16.74;36.57
80824;SHT35;70228;59.128;37.936;2023-05-19T10:10:37;16.82;37.00
80824;SHT35;70228;59.128;37.936;2023-05-19T10:13:04;16.84;36.87
80824;SHT35;70228;59.128;37.936;2023-05-19T10:15:31;16.74;37.02
80824;SHT35;70228;59.128;37.936;2023-05-19T10:17:58;16.67;37.24
80824;SHT35;70228;59.128;37.936;2023-05-19T10:20:25;16.64;37.58
80824;SHT35;70228;59.128;37.936;2023-05-19T10:22:52;16.68;37.90
80824;SHT35;70228;59.128;37.936;2023-05-19T10:25:18;16.63;38.03
80824;SHT35;70228;59.128;37.936;2023-05-19T10:27:56;16.54;38.23
80824;SHT35;70228;59.128;37.936;2023-05-19T10:30:38;16.33;38.86
80824;SHT35;70228;59.128;37.936;2023-05-19T10:33:09;16.25;39.07
80824;SHT35;70228;59.128;37.936;2023-05-19T10:41:15;15.91;40.42
80824;SHT35;70228;59.128;37.936;2023-05-19T10:44:00;15.88;40.57
80824;SHT35;70228;59.128;37.936;2023-05-19T10:46:29;15.90;40.70
80824;SHT35;70228;59.128;37.936;2023-05-19T10:48:56;16.09;40.44
80824;SHT35;70228;59.128;37.936;2023-05-19T10:51:32;16.27;39.92
80824;SHT35;70228;59.128;37.936;2023-05-19T10:54:02;16.34;39.34
80824;SHT35;70228;59.128;37.936;2023-05-19T10:56:32;16.36;39.15
80824;SHT35;70228;59.128;37.936;2023-05-19T10:59:01;16.33;38.99
80824;SHT35;70228;59.128;37.936;2023-05-19T11:01:32;16.29;39.16
80824;SHT35;70228;59.128;37.936;2023-05-19T11:04:09;16.40;39.03
80824;SHT35;70228;59.128;37.936;2023-05-19T11:06:40;16.47;38.91
80824;SHT35;70228;59.128;37.936;2023-05-19T11:09:19;16.47;38.64
80824;SHT35;70228;59.128;37.936;2023-05-19T11:11:52;16.42;38.84
80824;SHT35;70228;59.128;37.936;2023-05-19T11:14:25;16.42;38.83
80824;SHT35;70228;59.128;37.936;2023-05-19T11:16:55;16.45;38.68
80824;SHT35;70228;59.128;37.936;2023-05-19T11:19:28;16.49;38.47
80824;SHT35;70228;59.128;37.936;2023-05-19T11:21:55;16.54;38.41
80824;SHT35;70228;59.128;37.936;2023-05-19T11:24:35;16.64;38.06
80824;SHT35;70228;59.128;37.936;2023-05-19T11:27:21;16.60;38.33
80824;SHT35;70228;59.128;37.936;2023-05-19T11:29:49;16.61;38.36
80824;SHT35;70228;59.128;37.936;2023-05-19T11:32:16;16.68;38.19
80824;SHT35;70228;59.128;37.936;2023-05-19T11:34:43;16.67;38.20
80824;SHT35;70228;59.128;37.936;2023-05-19T11:37:10;16.53;38.14
80824;SHT35;70228;59.128;37.936;2023-05-19T11:39:38;16.46;38.39
80824;SHT35;70228;59.128;37.936;2023-05-19T11:42:04;16.49;38.52
80824;SHT35;70228;59.128;37.936;2023-05-19T11:44:31;16.57;38.43
80824;SHT35;70228;59.128;37.936;2023-05-19T11:47:00;16.61;38.54
80824;SHT35;70228;59.128;37.936;2023-05-19T11:49:27;16.68;38.61
80824;SHT35;70228;59.128;37.936;2023-05-19T11:51:54;16.74;38.64
80824;SHT35;70228;59.128;37.936;2023-05-19T11:54:20;16.73;38.55
80824;SHT35;70228;59.128;37.936;2023-05-19T11:56:46;16.61;38.87
80824;SHT35;70228;59.128;37.936;2023-05-19T11:59:12;16.67;38.95
80824;SHT35;70228;59.128;37.936;2023-05-19T12:01:38;16.64;39.02
80824;SHT35;70228;59.128;37.936;2023-05-19T12:04:07;16.56;39.32
80824;SHT35;70228;59.128;37.936;2023-05-19T12:06:35;16.59;39.25
80824;SHT35;70228;59.128;37.936;2023-05-19T12:09:04;16.70;39.14
80824;SHT35;70228;59.128;37.936;2023-05-19T12:11:30;16.77;39.11
80824;SHT35;70228;59.128;37.936;2023-05-19T12:14:00;16.82;38.78
80824;SHT35;70228;59.128;37.936;2023-05-19T12:16:33;16.89;38.76
80824;SHT35;70228;59.128;37.936;2023-05-19T12:19:00;16.91;38.45
80824;SHT35;70228;59.128;37.936;2023-05-19T12:21:26;16.80;38.55
80824;SHT35;70228;59.128;37.936;2023-05-19T12:23:53;16.70;38.94
80824;SHT35;70228;59.128;37.936;2023-05-19T12:26:20;16.74;39.03
80824;SHT35;70228;59.128;37.936;2023-05-19T12:28:48;16.85;38.90
80824;SHT35;70228;59.128;37.936;2023-05-19T12:31:16;16.92;38.62
80824;SHT35;70228;59.128;37.936;2023-05-19T12:33:42;16.92;38.81
80824;SHT35;70228;59.128;37.936;2023-05-19T12:36:09;16.96;38.72
80824;SHT35;70228;59.128;37.936;2023-05-19T12:38:35;16.87;38.93
80824;SHT35;70228;59.128;37.936;2023-05-19T12:41:04;16.77;39.15
80824;SHT35;70228;59.128;37.936;2023-05-19T12:43:31;16.74;39.18
80824;SHT35;70228;59.128;37.936;2023-05-19T12:45:58;16.89;39.05
80824;SHT35;70228;59.128;37.936;2023-05-19T12:48:33;17.02;38.80
80824;SHT35;70228;59.128;37.936;2023-05-19T12:50:59;17.00;38.55
80824;SHT35;70228;59.128;37.936;2023-05-19T12:53:26;16.88;38.77
80824;SHT35;70228;59.128;37.936;2023-05-19T12:55:53;16.70;38.93
80824;SHT35;70228;59.128;37.936;2023-05-19T12:58:19;16.61;39.01
80824;SHT35;70228;59.128;37.936;2023-05-19T13:00:46;16.53;38.96
80824;SHT35;70228;59.128;37.936;2023-05-19T13:03:15;16.42;39.14
80824;SHT35;70228;59.128;37.936;2023-05-19T13:05:43;16.39;39.42
80824;SHT35;70228;59.128;37.936;2023-05-19T13:08:16;16.33;39.21
80824;SHT35;70228;59.128;37.936;2023-05-19T13:10:43;16.26;39.35
80824;SHT35;70228;59.128;37.936;2023-05-19T13:13:11;16.29;39.29
80824;SHT35;70228;59.128;37.936;2023-05-19T13:15:39;16.26;39.38
80824;SHT35;70228;59.128;37.936;2023-05-19T13:18:07;16.33;39.58
80824;SHT35;70228;59.128;37.936;2023-05-19T13:20:35;16.39;39.41
80824;SHT35;70228;59.128;37.936;2023-05-19T13:23:02;16.42;39.44
80824;SHT35;70228;59.128;37.936;2023-05-19T13:25:29;16.40;39.40
80824;SHT35;70228;59.128;37.936;2023-05-19T13:27:55;16.50;39.29
80824;SHT35;70228;59.128;37.936;2023-05-19T13:30:23;16.73;39.21
80824;SHT35;70228;59.128;37.936;2023-05-19T13:32:50;16.88;38.59
80824;SHT35;70228;59.128;37.936;2023-05-19T13:35:17;16.95;38.57
80824;SHT35;70228;59.128;37.936;2023-05-19T13:37:43;16.95;38.67
80824;SHT35;70228;59.128;37.936;2023-05-19T13:40:10;17.05;38.71
80824;SHT35;70228;59.128;37.936;2023-05-19T13:42:36;17.16;38.56
80824;SHT35;70228;59.128;37.936;2023-05-19T13:45:03;17.22;38.10
80824;SHT35;70228;59.128;37.936;2023-05-19T13:47:29;17.11;37.99
80824;SHT35;70228;59.128;37.936;2023-05-19T13:49:55;16.95;38.30
80824;SHT35;70228;59.128;37.936;2023-05-19T13:52:21;16.75;38.65
80824;SHT35;70228;59.128;37.936;2023-05-19T13:54:48;16.70;38.99
80824;SHT35;70228;59.128;37.936;2023-05-19T13:57:17;16.65;38.99
80824;SHT35;70228;59.128;37.936;2023-05-19T13:59:43;16.52;39.38
80824;SHT35;70228;59.128;37.936;2023-05-19T14:02:09;16.39;39.85
80824;SHT35;70228;59.128;37.936;2023-05-19T14:04:36;16.22;40.44
80824;SHT35;70228;59.128;37.936;2023-05-19T14:07:05;16.09;40.87
80824;SHT35;70228;59.128;37.936;2023-05-19T14:09:32;16.06;41.18
80824;SHT35;70228;59.128;37.936;2023-05-19T14:11:58;16.08;41.59
80824;SHT35;70228;59.128;37.936;2023-05-19T14:14:24;16.12;41.65
80824;SHT35;70228;59.128;37.936;2023-05-19T14:16:50;16.10;41.80
80824;SHT35;70228;59.128;37.936;2023-05-19T14:19:16;16.08;42.03
80824;SHT35;70228;59.128;37.936;2023-05-19T14:21:43;15.99;42.38
80824;SHT35;70228;59.128;37.936;2023-05-19T14:24:09;15.94;42.59
80824;SHT35;70228;59.128;37.936;2023-05-19T14:26:35;15.88;42.63
80824;SHT35;70228;59.128;37.936;2023-05-19T14:29:01;15.88;42.85
80824;SHT35;70228;59.128;37.936;2023-05-19T14:31:27;15.85;42.98
80824;SHT35;70228;59.128;37.936;2023-05-19T14:33:53;15.87;43.24
80824;SHT35;70228;59.128;37.936;2023-05-19T14:36:19;15.85;43.29
80824;SHT35;70228;59.128;37.936;2023-05-19T14:38:45;15.77;43.58
80824;SHT35;70228;59.128;37.936;2023-05-19T14:41:11;15.78;43.56
80824;SHT35;70228;59.128;37.936;2023-05-19T14:43:37;15.85;43.62
80824;SHT35;70228;59.128;37.936;2023-05-19T14:46:06;15.91;43.63
80824;SHT35;70228;59.128;37.936;2023-05-19T14:48:31;15.92;43.64
80824;SHT35;70228;59.128;37.936;2023-05-19T14:50:58;15.91;43.78
80824;SHT35;70228;59.128;37.936;2023-05-19T14:53:24;15.87;43.96
80824;SHT35;70228;59.128;37.936;2023-05-19T14:55:50;15.91;43.96
80824;SHT35;70228;59.128;37.936;2023-05-19T14:58:16;15.88;44.04
80824;SHT35;70228;59.128;37.936;2023-05-19T15:00:43;15.77;44.17
80824;SHT35;70228;59.128;37.936;2023-05-19T15:03:09;15.73;44.37
80824;SHT35;70228;59.128;37.936;2023-05-19T15:05:36;15.73;44.45
80824;SHT35;70228;59.128;37.936;2023-05-19T15:08:05;15.77;44.51
80824;SHT35;70228;59.128;37.936;2023-05-19T15:10:31;15.82;44.28
80824;SHT35;70228;59.128;37.936;2023-05-19T15:12:58;15.77;44.13
80824;SHT35;70228;59.128;37.936;2023-05-19T15:15:25;15.74;44.19
80824;SHT35;70228;59.128;37.936;2023-05-19T15:17:51;15.75;43.99
80824;SHT35;70228;59.128;37.936;2023-05-19T15:20:17;15.68;44.07
80824;SHT35;70228;59.128;37.936;2023-05-19T15:22:43;15.65;44.24
80824;SHT35;70228;59.128;37.936;2023-05-19T15:25:09;15.65;44.32
80824;SHT35;70228;59.128;37.936;2023-05-19T15:27:35;15.57;44.75
80824;SHT35;70228;59.128;37.936;2023-05-19T15:30:02;15.54;45.05
80824;SHT35;70228;59.128;37.936;2023-05-19T15:32:28;15.49;45.34
80824;SHT35;70228;59.128;37.936;2023-05-19T15:34:55;15.44;45.68
80824;SHT35;70228;59.128;37.936;2023-05-19T15:37:21;15.47;45.72
80824;SHT35;70228;59.128;37.936;2023-05-19T15:39:47;15.50;45.83
80824;SHT35;70228;59.128;37.936;2023-05-19T15:42:13;15.49;46.10
80824;SHT35;70228;59.128;37.936;2023-05-19T15:44:39;15.44;46.30
80824;SHT35;70228;59.128;37.936;2023-05-19T15:47:05;15.43;46.39
80824;SHT35;70228;59.128;37.936;2023-05-19T15:49:31;15.51;46.32
80824;SHT35;70228;59.128;37.936;2023-05-19T15:51:57;15.57;46.23
80824;SHT35;70228;59.128;37.936;2023-05-19T15:54:23;15.57;46.35
80824;SHT35;70228;59.128;37.936;2023-05-19T15:56:50;15.57;46.31
80824;SHT35;70228;59.128;37.936;2023-05-19T15:59:16;15.61;46.32
80824;SHT35;70228;59.128;37.936;2023-05-19T16:01:42;15.60;46.36
80824;SHT35;70228;59.128;37.936;2023-05-19T16:04:08;15.57;46.34
80824;SHT35;70228;59.128;37.936;2023-05-19T16:06:34;15.55;46.35
80824;SHT35;70228;59.128;37.936;2023-05-19T16:09:00;15.55;46.34
80824;SHT35;70228;59.128;37.936;2023-05-19T16:11:26;15.54;46.26
80824;SHT35;70228;59.128;37.936;2023-05-19T16:13:52;15.55;46.19
80824;SHT35;70228;59.128;37.936;2023-05-19T16:16:18;15.53;46.30
80824;SHT35;70228;59.128;37.936;2023-05-19T16:18:44;15.51;46.36
80824;SHT35;70228;59.128;37.936;2023-05-19T16:21:10;15.51;46.47
80824;SHT35;70228;59.128;37.936;2023-05-19T16:23:36;15.53;46.60
80824;SHT35;70228;59.128;37.936;2023-05-19T16:26:02;15.44;47.28
80824;SHT35;70228;59.128;37.936;2023-05-19T16:28:28;15.36;47.70
80824;SHT35;70228;59.128;37.936;2023-05-19T16:30:58;15.51;48.22
80824;SHT35;70228;59.128;37.936;2023-05-19T16:33:26;15.90;47.38
80824;SHT35;70228;59.128;37.936;2023-05-19T16:35:52;15.85;47.15
80824;SHT35;70228;59.128;37.936;2023-05-19T16:38:18;15.64;47.50
80824;SHT35;70228;59.128;37.936;2023-05-19T16:40:44;15.47;47.89
80824;SHT35;70228;59.128;37.936;2023-05-19T16:43:10;15.33;48.26
80824;SHT35;70228;59.128;37.936;2023-05-19T16:45:37;15.22;48.73
80824;SHT35;70228;59.128;37.936;2023-05-19T16:48:03;15.09;49.22
80824;SHT35;70228;59.128;37.936;2023-05-19T16:50:29;14.96;49.60
80824;SHT35;70228;59.128;37.936;2023-05-19T16:52:56;14.81;50.17
80824;SHT35;70228;59.128;37.936;2023-05-19T16:55:22;14.70;50.41
80824;SHT35;70228;59.128;37.936;2023-05-19T16:57:49;14.63;50.67
80824;SHT35;70228;59.128;37.936;2023-05-19T17:00:16;14.60;51.19
80824;SHT35;70228;59.128;37.936;2023-05-19T17:02:42;14.56;51.23
80824;SHT35;70228;59.128;37.936;2023-05-19T17:05:08;14.54;51.28
80824;SHT35;70228;59.128;37.936;2023-05-19T17:07:34;14.47;51.56
80824;SHT35;70228;59.128;37.936;2023-05-19T17:10:00;14.38;51.92
80824;SHT35;70228;59.128;37.936;2023-05-19T17:12:26;14.33;52.14
80824;SHT35;70228;59.128;37.936;2023-05-19T17:14:52;14.29;52.29
80824;SHT35;70228;59.128;37.936;2023-05-19T17:17:19;14.23;52.45
80824;SHT35;70228;59.128;37.936;2023-05-19T17:19:45;14.20;52.45
80824;SHT35;70228;59.128;37.936;2023-05-19T17:22:11;14.22;52.39
80824;SHT35;70228;59.128;37.936;2023-05-19T17:24:37;14.16;52.57
80824;SHT35;70228;59.128;37.936;2023-05-19T17:27:03;14.10;52.72
80824;SHT35;70228;59.128;37.936;2023-05-19T17:29:29;14.06;52.85
80824;SHT35;70228;59.128;37.936;2023-05-19T17:31:55;14.08;52.96
80824;SHT35;70228;59.128;37.936;2023-05-19T17:34:22;14.01;53.20
80824;SHT35;70228;59.128;37.936;2023-05-19T17:36:48;13.92;53.46
80824;SHT35;70228;59.128;37.936;2023-05-19T17:39:14;13.85;53.93
80824;SHT35;70228;59.128;37.936;2023-05-19T17:41:41;13.78;54.10
80824;SHT35;70228;59.128;37.936;2023-05-19T17:44:07;13.71;54.14
80824;SHT35;70228;59.128;37.936;2023-05-19T17:46:33;13.67;54.30
80824;SHT35;70228;59.128;37.936;2023-05-19T17:49:00;13.65;54.32
80824;SHT35;70228;59.128;37.936;2023-05-19T17:51:27;13.68;54.56
80824;SHT35;70228;59.128;37.936;2023-05-19T17:53:53;13.68;54.57
80824;SHT35;70228;59.128;37.936;2023-05-19T17:56:20;13.68;54.39
80824;SHT35;70228;59.128;37.936;2023-05-19T17:58:49;13.70;54.39
80824;SHT35;70228;59.128;37.936;2023-05-19T18:01:17;13.62;54.70
80824;SHT35;70228;59.128;37.936;2023-05-19T18:03:48;13.60;54.70
80824;SHT35;70228;59.128;37.936;2023-05-19T18:06:18;13.60;54.76
80824;SHT35;70228;59.128;37.936;2023-05-19T18:08:45;13.55;54.80
80824;SHT35;70228;59.128;37.936;2023-05-19T18:11:19;13.55;54.86
80824;SHT35;70228;59.128;37.936;2023-05-19T18:13:45;13.54;54.78
80824;SHT35;70228;59.128;37.936;2023-05-19T18:16:11;13.53;54.72
80824;SHT35;70228;59.128;37.936;2023-05-19T18:18:38;13.51;54.63
80824;SHT35;70228;59.128;37.936;2023-05-19T18:21:08;13.48;54.58
80824;SHT35;70228;59.128;37.936;2023-05-19T18:23:39;13.48;54.56
80824;SHT35;70228;59.128;37.936;2023-05-19T18:26:06;13.51;54.50
80824;SHT35;70228;59.128;37.936;2023-05-19T18:28:32;13.48;54.41
80824;SHT35;70228;59.128;37.936;2023-05-19T18:31:02;13.47;54.47
80824;SHT35;70228;59.128;37.936;2023-05-19T18:33:29;13.43;54.43
80824;SHT35;70228;59.128;37.936;2023-05-19T18:35:55;13.43;54.41
80824;SHT35;70228;59.128;37.936;2023-05-19T18:38:21;13.40;54.38
80824;SHT35;70228;59.128;37.936;2023-05-19T18:40:49;13.40;54.40
80824;SHT35;70228;59.128;37.936;2023-05-19T18:43:15;13.40;54.40
80824;SHT35;70228;59.128;37.936;2023-05-19T18:45:41;13.39;54.35
80824;SHT35;70228;59.128;37.936;2023-05-19T18:48:07;13.36;54.50
80824;SHT35;70228;59.128;37.936;2023-05-19T18:50:33;13.36;54.58
80824;SHT35;70228;59.128;37.936;2023-05-19T18:53:00;13.33;54.69
80824;SHT35;70228;59.128;37.936;2023-05-19T18:55:26;13.33;54.67
80824;SHT35;70228;59.128;37.936;2023-05-19T18:57:52;13.28;54.78
80824;SHT35;70228;59.128;37.936;2023-05-19T19:00:19;13.23;54.79
80824;SHT35;70228;59.128;37.936;2023-05-19T19:02:45;13.23;54.76
80824;SHT35;70228;59.128;37.936;2023-05-19T19:05:11;13.23;54.70
80824;SHT35;70228;59.128;37.936;2023-05-19T19:07:39;13.26;54.64
80824;SHT35;70228;59.128;37.936;2023-05-19T19:10:06;13.32;54.49
80824;SHT35;70228;59.128;37.936;2023-05-19T19:12:32;13.30;54.54
80824;SHT35;70228;59.128;37.936;2023-05-19T19:14:59;13.34;54.53
80824;SHT35;70228;59.128;37.936;2023-05-19T19:17:25;13.36;54.46
80824;SHT35;70228;59.128;37.936;2023-05-19T19:19:51;13.27;54.62
80824;SHT35;70228;59.128;37.936;2023-05-19T19:22:17;13.26;54.70
80824;SHT35;70228;59.128;37.936;2023-05-19T19:24:44;13.24;54.70
80824;SHT35;70228;59.128;37.936;2023-05-19T19:27:10;13.17;54.79
80824;SHT35;70228;59.128;37.936;2023-05-19T19:29:36;13.15;54.81
80824;SHT35;70228;59.128;37.936;2023-05-19T19:32:02;13.16;54.74
80824;SHT35;70228;59.128;37.936;2023-05-19T19:34:28;13.12;54.77
80824;SHT35;70228;59.128;37.936;2023-05-19T19:36:54;13.07;54.91
80824;SHT35;70228;59.128;37.936;2023-05-19T19:39:20;12.99;55.02
80824;SHT35;70228;59.128;37.936;2023-05-19T19:41:46;12.92;55.14
80824;SHT35;70228;59.128;37.936;2023-05-19T19:44:12;12.89;55.28
80824;SHT35;70228;59.128;37.936;2023-05-19T19:46:38;12.85;55.24
80824;SHT35;70228;59.128;37.936;2023-05-19T19:49:05;12.87;55.19
80824;SHT35;70228;59.128;37.936;2023-05-19T19:51:31;12.87;55.17
80824;SHT35;70228;59.128;37.936;2023-05-19T19:53:57;12.87;55.13
80824;SHT35;70228;59.128;37.936;2023-05-19T19:56:23;12.82;55.13
80824;SHT35;70228;59.128;37.936;2023-05-19T19:58:52;12.82;55.10
80824;SHT35;70228;59.128;37.936;2023-05-19T20:01:18;12.77;55.16
80824;SHT35;70228;59.128;37.936;2023-05-19T20:03:48;12.79;55.13
80824;SHT35;70228;59.128;37.936;2023-05-19T20:06:14;12.78;55.11
80824;SHT35;70228;59.128;37.936;2023-05-19T20:08:40;12.77;55.06
80824;SHT35;70228;59.128;37.936;2023-05-19T20:11:06;12.72;55.10
80824;SHT35;70228;59.128;37.936;2023-05-19T20:13:32;12.71;55.20
80824;SHT35;70228;59.128;37.936;2023-05-19T20:15:58;12.77;55.17
80824;SHT35;70228;59.128;37.936;2023-05-19T20:18:24;12.74;55.13
80824;SHT35;70228;59.128;37.936;2023-05-19T20:20:52;12.74;55.13
80824;SHT35;70228;59.128;37.936;2023-05-19T20:23:18;12.74;55.12
80824;SHT35;70228;59.128;37.936;2023-05-19T20:25:44;12.77;55.13
80824;SHT35;70228;59.128;37.936;2023-05-19T20:28:10;12.72;55.27
80824;SHT35;70228;59.128;37.936;2023-05-19T20:30:36;12.68;55.29
80824;SHT35;70228;59.128;37.936;2023-05-19T20:33:03;12.71;55.33
80824;SHT35;70228;59.128;37.936;2023-05-19T20:35:29;12.67;55.33
80824;SHT35;70228;59.128;37.936;2023-05-19T20:37:55;12.67;55.45
80824;SHT35;70228;59.128;37.936;2023-05-19T20:40:21;12.64;55.45
80824;SHT35;70228;59.128;37.936;2023-05-19T20:42:47;12.65;55.48